Time;durP1;ratioP1;P1;durP2;ratioP2;P2;SDS_P1;SDS_P2;PMS_P1;PMS_P2;Temp;Humidity;BMP_temperature;BMP_pressure;BME280_temperature;BME280_humidity;BME280_pressure;Samples;Min_cycle;Max_cycle;Signal;HPM_P1;HPM_P2
2023/11/25 05:00:49;;;;;;;0.77;0.77;;;2.00;99.90;;;;;;5737377;23;20546;-74
2023/11/25 05:03:16;;;;;;;2.35;0.95;;;2.00;99.90;;;;;;4951889;28;20220;-73
2023/11/25 05:05:42;;;;;;;2.60;0.75;;;2.00;99.90;;;;;;4951917;28;20216;-73
2023/11/25 05:08:09;;;;;;;0.30;0.30;;;2.00;99.90;;;;;;4953581;28;20209;-74
2023/11/25 05:10:36;;;;;;;3.25;1.05;;;2.00;99.90;;;;;;4946800;29;20619;-74
2023/11/25 05:13:04;;;;;;;1.50;0.90;;;2.10;99.90;;;;;;4932328;29;20261;-73
2023/11/25 05:15:31;;;;;;;2.50;1.15;;;2.10;99.90;;;;;;4932619;29;20214;-73
2023/11/25 05:17:59;;;;;;;0.65;0.50;;;2.10;99.90;;;;;;4932069;29;20237;-73
2023/11/25 05:20:25;;;;;;;0.70;0.70;;;2.10;99.90;;;;;;4932201;29;20586;-73
2023/11/25 05:22:52;;;;;;;9.30;1.05;;;2.10;99.90;;;;;;4931275;29;20591;-73
2023/11/25 05:25:19;;;;;;;0.55;0.55;;;2.10;99.90;;;;;;4931049;29;20213;-73
2023/11/25 05:27:45;;;;;;;2.75;0.57;;;2.10;99.90;;;;;;4931879;29;20585;-73
2023/11/25 05:30:12;;;;;;;0.85;0.82;;;2.10;99.90;;;;;;4932013;29;20245;-73
2023/11/25 05:32:39;;;;;;;1.13;1.05;;;2.10;99.90;;;;;;4933997;29;20206;-74
2023/11/25 05:35:08;;;;;;;1.73;0.60;;;2.10;99.90;;;;;;4934910;29;20235;-74
2023/11/25 05:37:35;;;;;;;0.60;0.60;;;2.10;99.90;;;;;;4933905;29;20703;-73
2023/11/25 05:40:05;;;;;;;1.23;1.15;;;2.10;99.90;;;;;;4933422;29;20213;-73
2023/11/25 05:42:32;;;;;;;0.60;0.50;;;2.10;99.90;;;;;;4930635;29;20320;-73
2023/11/25 05:44:58;;;;;;;2.25;1.15;;;2.20;99.90;;;;;;4936439;29;20210;-73
2023/11/25 05:47:25;;;;;;;1.80;1.13;;;2.10;99.90;;;;;;4936851;29;20206;-73
2023/11/25 05:49:52;;;;;;;2.25;0.40;;;2.10;99.90;;;;;;4934926;29;20210;-73
2023/11/25 05:52:20;;;;;;;0.98;0.98;;;2.20;99.90;;;;;;4935516;29;20234;-73
2023/11/25 05:54:47;;;;;;;0.47;0.47;;;2.20;99.90;;;;;;4935939;29;20202;-73
2023/11/25 05:57:14;;;;;;;1.95;0.82;;;2.20;99.90;;;;;;4934259;29;20247;-74
2023/11/25 05:59:41;;;;;;;0.57;0.57;;;2.30;99.90;;;;;;4936168;29;20231;-73
2023/11/25 06:02:07;;;;;;;1.27;0.57;;;2.30;99.90;;;;;;4933693;29;20237;-74
2023/11/25 06:04:34;;;;;;;0.40;0.40;;;2.40;99.90;;;;;;4934712;29;20209;-73
2023/11/25 06:07:01;;;;;;;0.50;0.50;;;2.30;99.90;;;;;;4933981;29;20210;-74
2023/11/25 06:09:29;;;;;;;0.65;0.65;;;2.40;99.90;;;;;;4931830;29;20216;-74
2023/11/25 06:11:55;;;;;;;2.40;0.73;;;2.50;99.90;;;;;;4960769;23;20232;-76
2023/11/25 06:14:22;;;;;;;2.72;0.52;;;2.40;99.90;;;;;;4947310;28;20224;-76
2023/11/25 06:16:49;;;;;;;2.38;0.60;;;2.40;99.90;;;;;;4953438;29;20212;-76
2023/11/25 06:19:17;;;;;;;0.68;0.68;;;2.40;99.90;;;;;;4951913;28;20225;-76
2023/11/25 06:21:45;;;;;;;1.20;1.10;;;2.30;99.90;;;;;;4950709;28;20253;-77
2023/11/25 06:24:12;;;;;;;1.40;0.70;;;2.30;99.90;;;;;;4929305;29;20214;-76
2023/11/25 06:26:41;;;;;;;0.85;0.85;;;2.30;99.90;;;;;;4934187;29;20206;-76
2023/11/25 06:29:08;;;;;;;0.30;0.30;;;2.30;99.90;;;;;;4931247;29;20218;-76
2023/11/25 06:31:35;;;;;;;0.60;0.45;;;2.30;99.90;;;;;;4930118;29;20217;-76
2023/11/25 06:34:03;;;;;;;3.53;1.50;;;2.30;99.90;;;;;;4933606;29;20668;-77
2023/11/25 06:36:30;;;;;;;8.68;1.55;;;2.30;99.90;;;;;;4933741;29;20206;-77
2023/11/25 06:38:57;;;;;;;1.20;0.70;;;2.20;99.90;;;;;;4933000;29;20726;-77
2023/11/25 06:41:25;;;;;;;0.40;0.40;;;2.20;99.90;;;;;;4934185;29;20649;-77
2023/11/25 06:43:53;;;;;;;0.95;0.95;;;2.20;99.90;;;;;;4929615;29;20658;-77
2023/11/25 06:46:22;;;;;;;0.52;0.52;;;2.20;99.90;;;;;;4933825;29;20699;-76
2023/11/25 06:48:49;;;;;;;1.05;0.52;;;2.20;99.90;;;;;;4935020;29;20206;-77
2023/11/25 06:51:16;;;;;;;2.05;1.00;;;2.10;99.90;;;;;;4930445;29;20302;-77
2023/11/25 06:53:43;;;;;;;1.65;0.88;;;2.10;99.90;;;;;;4931366;29;20236;-76
2023/11/25 06:56:09;;;;;;;0.95;0.95;;;2.10;99.90;;;;;;4930683;29;20757;-77
2023/11/25 06:58:36;;;;;;;1.57;1.47;;;2.10;99.90;;;;;;4930307;29;20230;-76
2023/11/25 07:01:04;;;;;;;0.90;0.88;;;2.10;99.90;;;;;;4929009;29;20466;-75
2023/11/25 07:03:31;;;;;;;0.98;0.98;;;2.10;99.90;;;;;;4932559;29;20226;-75
2023/11/25 07:05:58;;;;;;;1.05;1.05;;;2.10;99.90;;;;;;4930226;29;20561;-76
2023/11/25 07:08:25;;;;;;;1.95;1.20;;;2.10;99.90;;;;;;4934283;29;20213;-76
2023/11/25 07:10:54;;;;;;;1.20;0.73;;;2.20;99.90;;;;;;4933016;29;20210;-75
2023/11/25 07:13:21;;;;;;;0.68;0.68;;;2.20;99.90;;;;;;4934805;29;20762;-75
2023/11/25 07:15:48;;;;;;;0.65;0.30;;;2.20;99.90;;;;;;4931902;29;20206;-75
2023/11/25 07:18:18;;;;;;;0.43;0.43;;;2.20;99.90;;;;;;4935898;29;20236;-76
2023/11/25 07:20:45;;;;;;;0.70;0.70;;;2.30;99.90;;;;;;4933942;29;20289;-76
2023/11/25 07:23:13;;;;;;;1.00;1.00;;;2.30;99.90;;;;;;4934359;29;20327;-76
2023/11/25 07:25:41;;;;;;;0.65;0.60;;;2.30;99.90;;;;;;4927276;29;20210;-76
2023/11/25 07:28:11;;;;;;;1.48;1.38;;;2.40;99.90;;;;;;4933760;29;20704;-76
2023/11/25 07:30:38;;;;;;;4.13;1.23;;;2.40;99.90;;;;;;4933662;29;20246;-75
2023/11/25 07:33:04;;;;;;;1.98;1.88;;;2.40;99.90;;;;;;4932373;29;20226;-75
2023/11/25 07:35:32;;;;;;;1.10;1.10;;;2.40;99.90;;;;;;4934218;29;20213;-75
2023/11/25 07:37:59;;;;;;;1.70;1.20;;;2.40;99.90;;;;;;4932118;29;20230;-76
2023/11/25 07:40:26;;;;;;;2.58;0.75;;;2.40;99.90;;;;;;4931332;29;20201;-76
2023/11/25 07:42:52;;;;;;;0.82;0.73;;;2.40;99.90;;;;;;4926118;29;20353;-75
2023/11/25 07:45:19;;;;;;;0.80;0.80;;;2.50;99.90;;;;;;4928620;29;20216;-75
2023/11/25 07:47:46;;;;;;;1.35;0.73;;;2.50;99.90;;;;;;4927222;29;20202;-75
2023/11/25 07:50:14;;;;;;;0.70;0.70;;;2.50;99.90;;;;;;4932100;29;20217;-76
2023/11/25 07:52:42;;;;;;;0.80;0.80;;;2.50;99.90;;;;;;4927166;29;20313;-76
2023/11/25 07:55:09;;;;;;;3.60;1.23;;;2.50;99.90;;;;;;4928198;29;20582;-76
2023/11/25 07:57:37;;;;;;;2.10;1.45;;;2.50;99.90;;;;;;4931311;29;20320;-76
2023/11/25 08:00:06;;;;;;;1.05;1.05;;;2.50;99.90;;;;;;4929022;29;20274;-76
2023/11/25 08:02:33;;;;;;;0.70;0.70;;;2.60;99.90;;;;;;4931530;29;20237;-76
2023/11/25 08:05:00;;;;;;;0.77;0.77;;;2.60;99.90;;;;;;4930848;29;20237;-75
2023/11/25 08:07:26;;;;;;;1.30;1.17;;;2.60;99.90;;;;;;4929286;29;20210;-75
2023/11/25 08:09:56;;;;;;;1.05;0.55;;;2.70;99.90;;;;;;4925733;29;20218;-76
2023/11/25 08:12:22;;;;;;;3.28;1.17;;;2.70;99.90;;;;;;4930152;29;20700;-75
2023/11/25 08:14:49;;;;;;;0.77;0.77;;;2.70;99.90;;;;;;4931396;29;20210;-76
2023/11/25 08:17:16;;;;;;;0.47;0.47;;;2.80;99.90;;;;;;4931239;29;20327;-75
2023/11/25 08:19:43;;;;;;;3.50;1.30;;;2.90;99.90;;;;;;4930446;29;20237;-76
2023/11/25 08:22:09;;;;;;;3.80;1.40;;;3.00;99.90;;;;;;4929416;29;20229;-76
2023/11/25 08:24:36;;;;;;;2.78;1.40;;;3.00;99.90;;;;;;4926956;29;20491;-75
2023/11/25 08:27:05;;;;;;;1.02;0.93;;;3.10;99.90;;;;;;4931244;29;20210;-75
2023/11/25 08:29:31;;;;;;;4.07;1.08;;;3.00;99.90;;;;;;4929953;29;20209;-75
2023/11/25 08:31:58;;;;;;;2.08;1.98;;;3.10;99.90;;;;;;4929309;29;20233;-75
2023/11/25 08:34:25;;;;;;;0.70;0.70;;;3.10;99.90;;;;;;4928163;29;20206;-75
2023/11/25 08:36:53;;;;;;;1.77;1.63;;;3.10;99.90;;;;;;4929634;29;20225;-75
2023/11/25 08:39:25;;;;;;;1.88;1.42;;;3.10;99.90;;;;;;4927087;29;20611;-75
2023/11/25 08:41:52;;;;;;;1.88;1.88;;;3.10;99.90;;;;;;4927874;29;20265;-75
2023/11/25 08:44:20;;;;;;;0.70;0.70;;;3.20;99.90;;;;;;4930673;29;20213;-76
2023/11/25 08:46:48;;;;;;;1.13;0.90;;;3.20;99.90;;;;;;4928796;29;20206;-75
2023/11/25 08:49:15;;;;;;;1.02;0.98;;;3.30;99.90;;;;;;4926851;29;20212;-75
2023/11/25 08:51:46;;;;;;;2.08;1.25;;;3.30;99.90;;;;;;4930327;29;20225;-74
2023/11/25 08:54:13;;;;;;;0.80;0.80;;;3.40;99.90;;;;;;4929137;29;20313;-75
2023/11/25 08:56:41;;;;;;;1.98;1.38;;;3.40;99.90;;;;;;4928875;29;20217;-75
2023/11/25 08:59:07;;;;;;;6.18;2.25;;;3.50;99.90;;;;;;4929176;29;20727;-75
2023/11/25 09:01:39;;;;;;;1.60;1.50;;;3.50;99.90;;;;;;4929478;29;20213;-75
2023/11/25 09:04:07;;;;;;;3.83;1.90;;;3.50;99.90;;;;;;4930078;29;20229;-75
2023/11/25 09:06:36;;;;;;;4.75;1.80;;;3.60;99.90;;;;;;4931006;29;20217;-75
2023/11/25 09:09:04;;;;;;;1.38;1.33;;;3.60;99.90;;;;;;4928999;29;20665;-75
2023/11/25 09:11:31;;;;;;;2.20;1.67;;;3.60;99.90;;;;;;4929460;29;20210;-75
2023/11/25 09:13:58;;;;;;;3.35;1.58;;;3.70;99.90;;;;;;4925797;29;20210;-75
2023/11/25 09:16:26;;;;;;;1.35;0.82;;;3.70;99.90;;;;;;4929539;29;20213;-75
2023/11/25 09:18:54;;;;;;;3.60;1.13;;;3.80;99.90;;;;;;4935087;29;20237;-75
2023/11/25 09:21:20;;;;;;;1.38;0.88;;;3.80;99.90;;;;;;4932893;29;20209;-66
2023/11/25 09:23:47;;;;;;;1.40;1.30;;;3.80;99.90;;;;;;4933311;29;20210;-76
2023/11/25 09:26:14;;;;;;;2.30;1.00;;;3.80;99.90;;;;;;4934652;29;20226;-75
2023/11/25 09:28:41;;;;;;;0.85;0.85;;;3.90;99.90;;;;;;4937077;29;20202;-75
2023/11/25 09:31:07;;;;;;;1.90;1.27;;;3.90;99.90;;;;;;4932241;29;20273;-75
2023/11/25 09:33:34;;;;;;;0.90;0.90;;;4.00;99.90;;;;;;4936086;29;20234;-74
2023/11/25 09:36:02;;;;;;;1.42;1.20;;;4.00;99.90;;;;;;4934690;29;20205;-74
2023/11/25 09:38:29;;;;;;;2.60;1.65;;;4.00;99.90;;;;;;4931642;29;20593;-74
2023/11/25 09:40:56;;;;;;;0.98;0.98;;;4.10;99.90;;;;;;4931172;29;20238;-74
2023/11/25 09:43:22;;;;;;;1.10;1.00;;;4.20;99.90;;;;;;4930056;29;20230;-74
2023/11/25 09:45:51;;;;;;;1.48;1.20;;;4.20;99.90;;;;;;4935214;29;20210;-74
2023/11/25 09:48:17;;;;;;;6.07;2.17;;;4.20;99.90;;;;;;4932124;29;20222;-74
2023/11/25 09:50:44;;;;;;;1.35;1.25;;;4.20;99.90;;;;;;4933953;29;20266;-75
2023/11/25 09:53:20;;;;;;;2.08;1.88;;;4.30;99.90;;;;;;4936835;29;20227;-74
2023/11/25 09:55:59;;;;;;;3.97;1.77;;;4.40;99.90;;;;;;4936110;29;20305;-74
2023/11/25 09:58:27;;;;;;;3.03;2.28;;;4.30;99.90;;;;;;4930526;29;20215;-75
2023/11/25 10:00:56;;;;;;;1.25;1.25;;;4.40;99.90;;;;;;4933207;29;20218;-75
2023/11/25 10:03:24;;;;;;;2.25;1.85;;;4.40;99.90;;;;;;4929809;29;20226;-74
2023/11/25 10:05:51;;;;;;;3.35;1.95;;;4.40;99.90;;;;;;4934965;29;20628;-74
2023/11/25 10:08:19;;;;;;;1.55;1.48;;;4.40;99.90;;;;;;4935396;29;20220;-74
2023/11/25 10:10:59;;;;;;;3.50;2.35;;;4.40;99.90;;;;;;4935040;29;20220;-75
2023/11/25 10:13:26;;;;;;;2.05;1.67;;;4.50;99.90;;;;;;4934112;29;20727;-75
2023/11/25 10:15:53;;;;;;;3.17;2.28;;;4.50;99.90;;;;;;4935045;29;20209;-75
2023/11/25 10:18:19;;;;;;;1.85;1.63;;;4.50;99.90;;;;;;4933523;29;20304;-75
2023/11/25 10:20:47;;;;;;;13.18;2.50;;;4.50;99.90;;;;;;4934994;29;20214;-75
2023/11/25 10:23:23;;;;;;;3.53;2.50;;;4.50;99.90;;;;;;4935443;29;20300;-75
2023/11/25 10:25:51;;;;;;;3.97;2.63;;;4.50;99.90;;;;;;4934673;29;20206;-75
2023/11/25 10:28:19;;;;;;;4.43;1.85;;;4.60;99.90;;;;;;4934146;29;20217;-76
2023/11/25 10:30:54;;;;;;;7.43;4.05;;;4.60;99.90;;;;;;4931089;29;20214;-75
2023/11/25 10:33:22;;;;;;;3.47;3.28;;;4.60;99.90;;;;;;4930130;29;20378;-75
2023/11/25 10:35:49;;;;;;;8.35;4.65;;;4.60;99.90;;;;;;4933939;29;20645;-75
2023/11/25 10:38:16;;;;;;;4.65;4.20;;;4.60;99.90;;;;;;4932873;29;20201;-76
2023/11/25 10:40:44;;;;;;;6.97;5.72;;;4.60;99.90;;;;;;4929778;29;20237;-75
2023/11/25 10:43:11;;;;;;;10.38;6.53;;;4.60;99.90;;;;;;4933721;29;20244;-75
2023/11/25 10:45:39;;;;;;;3.30;3.05;;;4.70;99.90;;;;;;4934610;29;20210;-75
2023/11/25 10:48:07;;;;;;;3.53;3.33;;;4.70;99.90;;;;;;4931501;29;20219;-75
2023/11/25 10:50:34;;;;;;;7.03;4.38;;;4.80;99.90;;;;;;4932811;29;20209;-75
2023/11/25 10:53:05;;;;;;;3.72;3.25;;;4.90;99.90;;;;;;4934175;29;20226;-75
2023/11/25 10:55:33;;;;;;;5.70;5.13;;;4.90;99.90;;;;;;4933748;29;20245;-75
2023/11/25 10:58:05;;;;;;;3.75;3.50;;;4.80;99.90;;;;;;4934432;29;20213;-75
2023/11/25 11:00:32;;;;;;;3.20;2.95;;;4.80;99.90;;;;;;4933123;29;20222;-75
2023/11/25 11:03:05;;;;;;;4.40;3.50;;;4.80;99.90;;;;;;4932218;29;20618;-75
2023/11/25 11:05:37;;;;;;;3.45;3.15;;;4.90;99.90;;;;;;4933376;29;20206;-75
2023/11/25 11:08:08;;;;;;;4.30;2.60;;;4.90;99.90;;;;;;4930729;29;20214;-75
2023/11/25 11:10:41;;;;;;;2.83;2.72;;;4.80;99.90;;;;;;4933966;29;20229;-75
2023/11/25 11:13:13;;;;;;;4.45;3.83;;;4.90;99.90;;;;;;4933560;29;20264;-74
2023/11/25 11:15:44;;;;;;;2.70;2.60;;;5.10;99.90;;;;;;4934532;29;20635;-75
2023/11/25 11:18:19;;;;;;;2.13;1.83;;;5.10;99.90;;;;;;4934275;29;20229;-74
2023/11/25 11:20:49;;;;;;;2.40;2.10;;;5.10;99.90;;;;;;4929369;29;20226;-75
2023/11/25 11:23:19;;;;;;;2.05;1.95;;;5.00;99.90;;;;;;4934534;29;20229;-74
2023/11/25 11:25:55;;;;;;;6.55;3.20;;;5.00;99.90;;;;;;4935949;29;20238;-74
2023/11/25 11:28:27;;;;;;;3.97;2.80;;;5.00;99.90;;;;;;4936272;29;20218;-74
2023/11/25 11:31:23;;;;;;;3.33;1.88;;;5.00;99.90;;;;;;4935810;29;20202;-75
2023/11/25 11:33:50;;;;;;;4.60;2.38;;;5.10;99.90;;;;;;4936325;29;20206;-76
2023/11/25 11:36:21;;;;;;;2.17;2.08;;;5.10;99.90;;;;;;4943178;29;20615;-75
2023/11/25 11:38:48;;;;;;;3.42;2.30;;;5.20;99.90;;;;;;4948702;29;20233;-75
2023/11/25 11:41:24;;;;;;;3.10;2.38;;;5.20;99.90;;;;;;4933109;29;20232;-67
2023/11/25 11:44:02;;;;;;;8.88;2.55;;;5.20;99.90;;;;;;4934358;29;20225;-67
2023/11/25 11:46:30;;;;;;;2.53;2.30;;;5.20;99.90;;;;;;4934277;29;20260;-68
2023/11/25 11:48:57;;;;;;;2.88;1.92;;;5.20;99.90;;;;;;4933189;29;20228;-74
2023/11/25 11:51:24;;;;;;;1.90;1.80;;;5.20;99.90;;;;;;4925716;29;20206;-74
2023/11/25 11:54:28;;;;;;;1.90;1.90;;;5.30;99.90;;;;;;4932229;29;20205;-76
2023/11/25 11:57:02;;;;;;;1.00;1.00;;;5.50;99.90;;;;;;4929846;29;20210;-75
2023/11/25 11:59:59;;;;;;;0.80;0.80;;;5.60;99.90;;;;;;4933057;29;20236;-77
2023/11/25 12:02:28;;;;;;;1.33;1.33;;;5.60;99.90;;;;;;4931638;29;20226;-77
2023/11/25 12:04:55;;;;;;;2.58;2.13;;;5.60;99.90;;;;;;4932549;29;20206;-77
2023/11/25 12:07:22;;;;;;;5.30;1.55;;;5.50;99.90;;;;;;4932079;29;20272;-76
2023/11/25 12:09:49;;;;;;;2.38;1.60;;;5.50;99.90;;;;;;4932877;29;20202;-77
2023/11/25 12:12:16;;;;;;;3.67;3.15;;;5.50;99.90;;;;;;4931770;29;20669;-75
2023/11/25 12:14:45;;;;;;;2.17;2.17;;;5.60;99.90;;;;;;4932595;29;20221;-75
2023/11/25 12:17:13;;;;;;;2.72;1.98;;;5.50;99.90;;;;;;4932008;29;20229;-75
2023/11/25 12:19:40;;;;;;;1.77;1.77;;;5.50;99.90;;;;;;4931930;29;20233;-75
2023/11/25 12:22:07;;;;;;;2.95;2.10;;;5.40;99.90;;;;;;4927341;29;20719;-76
2023/11/25 12:24:34;;;;;;;1.50;1.17;;;5.40;99.90;;;;;;4932870;29;20308;-76
2023/11/25 12:27:04;;;;;;;2.83;1.70;;;5.40;99.90;;;;;;4932812;29;20214;-75
2023/11/25 12:29:33;;;;;;;1.90;1.80;;;5.30;99.90;;;;;;4931974;29;20232;-72
2023/11/25 12:32:00;;;;;;;1.10;1.10;;;5.30;99.90;;;;;;4928146;29;20314;-74
2023/11/25 12:34:29;;;;;;;5.35;1.98;;;5.30;99.90;;;;;;4932531;29;20206;-74
2023/11/25 12:36:56;;;;;;;1.70;1.70;;;5.40;99.90;;;;;;4930232;29;20665;-74
2023/11/25 12:39:24;;;;;;;2.20;2.20;;;5.40;99.90;;;;;;4929487;29;20245;-75
2023/11/25 12:41:51;;;;;;;1.90;1.80;;;5.40;99.90;;;;;;4928486;29;20709;-74
2023/11/25 12:44:19;;;;;;;2.17;2.00;;;5.40;99.90;;;;;;4932166;29;21416;-74
2023/11/25 12:47:00;;;;;;;1.38;1.38;;;5.30;99.90;;;;;;4926012;29;20222;-75
2023/11/25 12:49:29;;;;;;;3.55;3.00;;;5.30;99.90;;;;;;4932467;29;20261;-74
2023/11/25 12:51:56;;;;;;;1.48;1.40;;;5.20;99.90;;;;;;4932163;29;20225;-74
2023/11/25 12:54:23;;;;;;;2.55;2.35;;;5.30;99.90;;;;;;4936242;29;20209;-73
2023/11/25 12:56:52;;;;;;;2.75;2.05;;;5.30;99.90;;;;;;4936239;29;20209;-74
2023/11/25 12:59:28;;;;;;;1.85;1.75;;;5.30;99.90;;;;;;4935404;29;20234;-75
2023/11/25 13:01:55;;;;;;;4.35;2.78;;;5.40;99.90;;;;;;4935945;29;20244;-75
2023/11/25 13:04:23;;;;;;;2.90;1.88;;;5.40;99.90;;;;;;4934784;29;20218;-75
2023/11/25 13:06:51;;;;;;;1.80;1.70;;;5.40;99.90;;;;;;4935404;29;20214;-74
2023/11/25 13:09:27;;;;;;;2.78;2.10;;;5.40;99.90;;;;;;4935605;29;20218;-73
2023/11/25 13:11:54;;;;;;;2.28;1.95;;;5.40;99.90;;;;;;4935723;29;20245;-74
2023/11/25 13:14:21;;;;;;;3.33;3.13;;;5.40;99.90;;;;;;4936059;29;20224;-73
2023/11/25 13:16:48;;;;;;;1.67;1.58;;;5.40;99.90;;;;;;4935965;29;20293;-76
2023/11/25 13:19:14;;;;;;;2.28;1.92;;;5.40;99.90;;;;;;4932915;29;20240;-75
2023/11/25 13:21:41;;;;;;;1.65;1.55;;;5.50;99.90;;;;;;4932117;29;20205;-76
2023/11/25 13:24:09;;;;;;;2.45;2.00;;;5.60;99.90;;;;;;4923511;29;20741;-74
2023/11/25 13:26:37;;;;;;;1.08;1.08;;;5.70;99.90;;;;;;4918661;29;20670;-73
2023/11/25 13:29:04;;;;;;;1.48;1.35;;;5.80;99.90;;;;;;4920848;29;20222;-73
2023/11/25 13:31:31;;;;;;;1.95;1.45;;;5.80;99.90;;;;;;4917832;29;20267;-72
2023/11/25 13:33:58;;;;;;;1.83;1.73;;;5.90;99.90;;;;;;4922007;29;20208;-73
2023/11/25 13:36:25;;;;;;;3.45;1.50;;;5.90;99.90;;;;;;4917743;29;20223;-73
2023/11/25 13:38:52;;;;;;;1.15;1.15;;;5.90;99.90;;;;;;4922898;29;20238;-73
2023/11/25 13:41:21;;;;;;;1.30;1.20;;;5.90;99.90;;;;;;4927511;29;20321;-72
2023/11/25 13:43:48;;;;;;;2.28;1.92;;;5.90;99.90;;;;;;4917686;29;20283;-72
2023/11/25 13:46:16;;;;;;;1.60;1.60;;;5.90;99.90;;;;;;4918346;29;20301;-71
2023/11/25 13:48:42;;;;;;;1.05;1.05;;;5.90;99.90;;;;;;4925691;29;20571;-72
2023/11/25 13:51:09;;;;;;;1.85;1.75;;;5.90;99.90;;;;;;4930634;29;20579;-72
2023/11/25 13:53:36;;;;;;;2.65;2.42;;;5.90;99.90;;;;;;4918962;29;20231;-72
2023/11/25 13:56:02;;;;;;;2.33;1.65;;;5.80;99.90;;;;;;4921603;29;20207;-72
2023/11/25 13:58:31;;;;;;;2.50;2.30;;;5.80;99.90;;;;;;4918120;29;20211;-72
2023/11/25 14:00:58;;;;;;;1.92;1.77;;;5.80;99.90;;;;;;4925040;29;20244;-72
2023/11/25 14:03:25;;;;;;;2.30;2.10;;;5.80;99.90;;;;;;4923739;29;20697;-72
2023/11/25 14:05:53;;;;;;;2.75;2.55;;;5.80;99.90;;;;;;4921877;29;20282;-70
2023/11/25 14:08:27;;;;;;;1.80;1.70;;;5.80;99.90;;;;;;4921380;29;20206;-69
2023/11/25 14:10:54;;;;;;;2.53;2.33;;;5.80;99.90;;;;;;4926747;29;20240;-66
2023/11/25 14:13:21;;;;;;;3.30;3.00;;;5.80;99.90;;;;;;4925827;29;20245;-67
2023/11/25 14:15:49;;;;;;;4.05;2.50;;;5.80;99.90;;;;;;4929245;29;20233;-71
2023/11/25 14:18:16;;;;;;;2.40;2.28;;;5.80;99.90;;;;;;4929394;29;20241;-71
2023/11/25 14:20:43;;;;;;;5.22;2.38;;;5.80;99.90;;;;;;4927024;29;20229;-72
2023/11/25 14:23:10;;;;;;;2.90;2.70;;;5.80;99.90;;;;;;4920906;29;20236;-74
2023/11/25 14:25:36;;;;;;;1.48;1.48;;;5.80;99.90;;;;;;4918018;29;20662;-73
2023/11/25 14:28:03;;;;;;;1.52;1.52;;;5.80;99.90;;;;;;4927126;29;20213;-73
2023/11/25 14:30:32;;;;;;;1.52;1.52;;;5.70;99.90;;;;;;4918035;28;20206;-73
2023/11/25 14:33:03;;;;;;;1.27;1.27;;;5.70;99.90;;;;;;4920152;29;20237;-73
2023/11/25 14:35:29;;;;;;;3.95;1.27;;;5.60;99.90;;;;;;4923907;29;20318;-74
2023/11/25 14:37:59;;;;;;;1.75;1.33;;;5.60;99.90;;;;;;4918171;29;20218;-73
2023/11/25 14:40:26;;;;;;;0.50;0.50;;;5.50;99.90;;;;;;4919279;29;20293;-74
2023/11/25 14:42:52;;;;;;;0.50;0.50;;;5.30;99.90;;;;;;4924716;29;20725;-74
2023/11/25 14:45:20;;;;;;;2.17;0.47;;;5.10;99.90;;;;;;4922413;29;20639;-74
2023/11/25 14:47:47;;;;;;;0.35;0.35;;;5.00;99.90;;;;;;4920405;29;20645;-73
2023/11/25 14:50:15;;;;;;;0.60;0.60;;;4.90;99.90;;;;;;4926260;29;20282;-74
2023/11/25 14:52:42;;;;;;;0.30;0.30;;;4.70;99.90;;;;;;4921471;29;20225;-73
2023/11/25 14:55:09;;;;;;;0.50;0.50;;;4.60;99.90;;;;;;4924678;29;20213;-74
2023/11/25 14:57:36;;;;;;;0.90;0.90;;;4.50;99.90;;;;;;4938138;29;20206;-74
2023/11/25 15:00:04;;;;;;;0.50;0.50;;;4.50;99.90;;;;;;4925218;29;20238;-73
2023/11/25 15:02:31;;;;;;;2.63;0.95;;;4.50;99.90;;;;;;4931259;29;20226;-73
2023/11/25 15:04:58;;;;;;;0.77;0.65;;;4.50;99.90;;;;;;4921478;29;20246;-72
2023/11/25 15:07:25;;;;;;;0.75;0.63;;;4.50;99.90;;;;;;4924482;29;20245;-72
2023/11/25 15:09:52;;;;;;;0.68;0.68;;;4.50;99.90;;;;;;4917821;29;20216;-73
2023/11/25 15:12:19;;;;;;;0.85;0.85;;;4.50;99.90;;;;;;4923745;29;20250;-72
2023/11/25 15:14:46;;;;;;;1.05;1.05;;;4.50;99.90;;;;;;4919624;29;20214;-72
2023/11/25 15:17:13;;;;;;;24.98;16.83;;;4.50;99.90;;;;;;4923363;29;20210;-72
2023/11/25 15:19:42;;;;;;;11.98;7.03;;;4.50;99.90;;;;;;4926117;29;20205;-72
2023/11/25 15:22:09;;;;;;;21.65;14.40;;;4.50;99.90;;;;;;4921090;29;20235;-73
2023/11/25 15:24:37;;;;;;;6.78;4.22;;;4.50;99.90;;;;;;4926523;29;20296;-72
2023/11/25 15:27:04;;;;;;;4.88;4.45;;;4.40;99.90;;;;;;4931812;29;20210;-72
2023/11/25 15:29:32;;;;;;;2.38;2.17;;;4.40;99.90;;;;;;4926184;29;20304;-73
2023/11/25 15:31:58;;;;;;;1.92;1.83;;;4.40;99.90;;;;;;4930922;29;20230;-71
2023/11/25 15:34:25;;;;;;;1.95;1.95;;;4.30;99.90;;;;;;4932469;29;20551;-72
2023/11/25 15:36:52;;;;;;;2.08;2.03;;;4.40;99.90;;;;;;4930856;29;20214;-71
2023/11/25 15:39:19;;;;;;;2.92;2.83;;;4.40;99.90;;;;;;4926421;29;20221;-72
2023/11/25 15:41:47;;;;;;;4.40;4.30;;;4.40;99.90;;;;;;4930774;29;20238;-73
2023/11/25 15:44:15;;;;;;;3.28;3.17;;;4.30;99.90;;;;;;4928300;29;20221;-71
2023/11/25 15:46:42;;;;;;;2.78;2.60;;;4.40;99.90;;;;;;4928750;29;20217;-72
2023/11/25 15:49:09;;;;;;;2.90;2.90;;;4.40;99.90;;;;;;4928231;29;20209;-72
2023/11/25 15:51:36;;;;;;;1.60;1.60;;;4.40;99.90;;;;;;4925946;29;20205;-72
2023/11/25 15:54:03;;;;;;;3.05;2.70;;;4.40;99.90;;;;;;4931504;29;20231;-74
2023/11/25 15:56:32;;;;;;;0.82;0.82;;;4.40;99.90;;;;;;4923386;29;20625;-74
2023/11/25 15:59:01;;;;;;;0.93;0.93;;;4.40;99.90;;;;;;4925981;29;20213;-73
2023/11/25 16:01:28;;;;;;;0.55;0.55;;;4.40;99.90;;;;;;4927255;29;20234;-72
2023/11/25 16:03:55;;;;;;;0.95;0.57;;;4.30;99.90;;;;;;4929595;29;20680;-74
2023/11/25 16:06:22;;;;;;;0.55;0.55;;;4.20;99.90;;;;;;4933389;29;20206;-73
2023/11/25 16:08:49;;;;;;;0.85;0.47;;;4.10;99.90;;;;;;4928187;29;20238;-73
2023/11/25 16:11:16;;;;;;;0.43;0.43;;;4.10;99.90;;;;;;4926187;29;20209;-75
2023/11/25 16:13:43;;;;;;;0.43;0.43;;;4.00;99.90;;;;;;4932279;29;20241;-76
2023/11/25 16:16:11;;;;;;;0.73;0.73;;;4.00;99.90;;;;;;4926795;29;20207;-74
2023/11/25 16:18:38;;;;;;;1.08;1.08;;;3.90;99.90;;;;;;4924628;29;20254;-75
2023/11/25 16:21:05;;;;;;;0.90;0.90;;;3.90;99.90;;;;;;4923177;29;20722;-75
2023/11/25 16:23:32;;;;;;;1.05;1.05;;;3.80;99.90;;;;;;4927896;29;20222;-74
2023/11/25 16:25:59;;;;;;;0.60;0.60;;;3.80;99.90;;;;;;4926955;29;21182;-74
2023/11/25 16:28:26;;;;;;;1.08;1.08;;;3.80;99.90;;;;;;4928115;29;20336;-75
2023/11/25 16:30:52;;;;;;;1.10;1.10;;;3.80;99.90;;;;;;4926367;29;20213;-75
2023/11/25 16:33:20;;;;;;;3.70;3.45;;;3.80;99.90;;;;;;4933133;29;20237;-75
2023/11/25 16:35:47;;;;;;;9.95;4.57;;;3.70;99.90;;;;;;4931268;29;20217;-75
2023/11/25 16:38:18;;;;;;;13.55;11.05;;;3.70;99.90;;;;;;4929622;29;20573;-75
2023/11/25 16:40:45;;;;;;;3.15;2.95;;;3.70;99.90;;;;;;4928672;29;20229;-75
2023/11/25 16:43:11;;;;;;;1.75;1.75;;;3.60;99.90;;;;;;4925796;29;20225;-75
2023/11/25 16:45:39;;;;;;;1.98;1.88;;;3.60;99.90;;;;;;4926891;29;20637;-74
2023/11/25 16:48:06;;;;;;;0.98;0.98;;;3.50;99.90;;;;;;4927717;29;20681;-75
2023/11/25 16:50:37;;;;;;;1.90;1.48;;;3.50;99.90;;;;;;4931579;29;20216;-75
2023/11/25 16:53:04;;;;;;;2.40;2.20;;;3.50;99.90;;;;;;4932171;28;20226;-75
2023/11/25 16:55:31;;;;;;;1.92;1.80;;;3.50;99.90;;;;;;4930716;29;20214;-76
2023/11/25 16:57:57;;;;;;;1.90;1.90;;;3.50;99.90;;;;;;4927665;29;20553;-74
2023/11/25 17:00:24;;;;;;;1.70;1.70;;;3.50;99.90;;;;;;4929858;29;20213;-74
2023/11/25 17:02:51;;;;;;;1.90;1.90;;;3.40;99.90;;;;;;4928264;29;20237;-75
2023/11/25 17:05:18;;;;;;;4.50;4.10;;;3.40;99.90;;;;;;4924928;29;20210;-76
2023/11/25 17:07:46;;;;;;;1.30;1.20;;;3.40;99.90;;;;;;4921218;29;20727;-74
2023/11/25 17:10:13;;;;;;;1.40;1.40;;;3.30;99.90;;;;;;4921437;29;20237;-74
2023/11/25 17:12:39;;;;;;;1.33;1.33;;;3.30;99.90;;;;;;4921328;29;20744;-73
2023/11/25 17:15:07;;;;;;;2.25;1.20;;;3.30;99.90;;;;;;4922220;29;20217;-74
2023/11/25 17:17:34;;;;;;;1.40;1.40;;;3.20;99.90;;;;;;4925047;29;20221;-75
2023/11/25 17:20:00;;;;;;;2.17;2.13;;;3.20;99.90;;;;;;4930626;29;20217;-74
2023/11/25 17:22:27;;;;;;;1.58;1.58;;;3.20;99.90;;;;;;4925021;29;20246;-76
2023/11/25 17:24:55;;;;;;;2.20;2.20;;;3.20;99.90;;;;;;4922832;29;20650;-75
2023/11/25 17:27:24;;;;;;;2.25;2.25;;;3.30;99.90;;;;;;4925925;29;20213;-74
2023/11/25 17:29:51;;;;;;;2.65;2.45;;;3.20;99.90;;;;;;4923572;29;20649;-73
2023/11/25 17:32:18;;;;;;;2.53;1.52;;;3.30;99.90;;;;;;4931129;29;20248;-73
2023/11/25 17:34:45;;;;;;;3.90;1.77;;;3.30;99.90;;;;;;4925423;29;20572;-73
2023/11/25 17:37:12;;;;;;;2.03;2.03;;;3.30;99.90;;;;;;4920417;29;20256;-73
2023/11/25 17:39:39;;;;;;;3.90;2.08;;;3.30;99.90;;;;;;4923614;29;20209;-74
2023/11/25 17:42:07;;;;;;;1.85;1.75;;;3.30;99.90;;;;;;4926616;29;20250;-74
2023/11/25 17:44:34;;;;;;;1.70;1.60;;;3.30;99.90;;;;;;4929833;29;20213;-74
2023/11/25 17:47:02;;;;;;;0.75;0.75;;;3.30;99.90;;;;;;4921887;29;20291;-74
2023/11/25 17:49:29;;;;;;;2.08;2.08;;;3.20;99.90;;;;;;4930865;29;20210;-73
2023/11/25 17:51:56;;;;;;;4.40;3.80;;;3.20;99.90;;;;;;4932623;29;20604;-73
2023/11/25 17:54:23;;;;;;;3.00;2.58;;;3.20;99.90;;;;;;4932643;29;20218;-75
2023/11/25 17:56:49;;;;;;;3.35;2.50;;;3.20;99.90;;;;;;4929025;29;20217;-73
2023/11/25 17:59:17;;;;;;;2.80;1.85;;;3.10;99.90;;;;;;4931911;29;20217;-73
2023/11/25 18:01:44;;;;;;;2.00;1.45;;;3.10;99.90;;;;;;4935199;29;20245;-73